Time;durP1;ratioP1;P1;durP2;ratioP2;P2;SDS_P1;SDS_P2;PMS_P1;PMS_P2;Temp;Humidity;BMP_temperature;BMP_pressure;BME280_temperature;BME280_humidity;BME280_pressure;Samples;Min_cycle;Max_cycle;Signal;HPM_P1;HPM_P2
2022/09/21 15:50:33;;;;;;;1.70;1.10;;;;;;;22.50;37.99;96952.41;5097256;28;20534;-57
2022/09/21 15:53:03;;;;;;;1.58;1.30;;;;;;;21.47;39.86;96956.34;5091335;27;20039;-55
2022/09/21 15:55:32;;;;;;;1.48;1.30;;;;;;;21.12;40.88;96961.72;5092665;28;20046;-55
2022/09/21 15:58:03;;;;;;;4.05;1.52;;;;;;;21.43;40.22;96949.72;5101371;28;20641;-53
2022/09/21 16:00:32;;;;;;;;;;;;;;;21.89;39.70;96949.88;5096641;28;20060;-54
2022/09/21 16:03:04;;;;;;;1.67;1.40;;;;;;;21.92;40.00;96954.81;5099230;27;19966;-53
2022/09/21 16:05:44;;;;;;;1.58;1.15;;;;;;;21.79;39.69;96952.94;5095060;27;20517;-54
2022/09/21 16:08:30;;;;;;;2.92;1.20;;;;;;;21.91;38.96;96949.66;5094898;28;20063;-56
2022/09/21 16:11:13;;;;;;;1.98;1.10;;;;;;;21.15;38.88;96949.78;5096514;28;20079;-56
2022/09/21 16:16:28;;;;;;;1.73;0.90;;;;;;;22.22;38.05;96952.59;5094098;28;20080;-56
2022/09/21 16:18:58;;;;;;;3.17;1.10;;;;;;;21.59;38.94;96953.91;5099508;28;20082;-57
2022/09/21 16:21:31;;;;;;;2.17;1.33;;;;;;;21.77;39.28;96962.22;5097823;28;20522;-58
2022/09/21 16:24:08;;;;;;;4.75;1.40;;;;;;;21.56;39.28;96960.50;5094852;28;20087;-56
2022/09/21 16:26:38;;;;;;;1.73;1.58;;;;;;;21.35;40.14;96966.84;5101605;28;20083;-57
2022/09/21 16:29:18;;;;;;;1.88;1.50;;;;;;;21.50;39.18;96967.50;5104582;28;20086;-57
2022/09/21 16:31:47;;;;;;;1.95;1.40;;;;;;;21.60;39.25;96963.63;5098838;28;20522;-52
2022/09/21 16:34:31;;;;;;;1.83;1.13;;;;;;;21.21;39.62;96960.53;5097684;28;20518;-58
2022/09/21 16:37:01;;;;;;;1.95;1.30;;;;;;;21.21;39.66;96970.47;5092960;28;20536;-54
2022/09/21 16:39:30;;;;;;;1.63;1.30;;;;;;;21.40;38.83;96971.59;5095773;28;20540;-57
2022/09/21 16:42:01;;;;;;;3.67;1.33;;;;;;;20.83;39.77;96976.22;5080436;28;20086;-54
2022/09/21 16:44:43;;;;;;;2.72;1.40;;;;;;;21.43;39.17;96969.31;5097350;28;20087;-56
2022/09/21 16:47:14;;;;;;;2.67;1.20;;;;;;;21.32;39.73;96962.66;5096424;28;20075;-55
2022/09/21 16:49:42;;;;;;;1.77;1.20;;;;;;;21.36;38.77;96962.28;5096883;28;20082;-58
2022/09/21 16:52:15;;;;;;;2.10;1.40;;;;;;;21.50;39.40;96964.00;5097302;28;20071;-55
2022/09/21 16:54:44;;;;;;;1.92;1.30;;;;;;;21.26;40.15;96968.00;5090712;28;20090;-58
2022/09/21 16:57:13;;;;;;;2.83;1.40;;;;;;;21.02;40.04;96964.78;5097699;27;20076;-57
2022/09/21 16:59:42;;;;;;;1.25;1.15;;;;;;;20.91;41.08;96968.00;5096460;28;20083;-58
2022/09/21 17:02:11;;;;;;;2.70;1.50;;;;;;;20.89;40.65;96972.75;5101192;28;20075;-57
2022/09/21 17:04:39;;;;;;;2.30;1.50;;;;;;;20.88;41.27;96967.59;5099632;27;20177;-50
2022/09/21 17:07:12;;;;;;;1.63;1.25;;;;;;;21.16;40.80;96968.34;5099664;27;20071;-57
2022/09/21 17:09:43;;;;;;;1.95;1.50;;;;;;;20.46;42.17;96980.88;5099730;27;20087;-56
2022/09/21 17:12:13;;;;;;;1.67;1.48;;;;;;;20.42;42.58;96973.41;5099074;28;20075;-55
2022/09/21 17:14:42;;;;;;;6.35;1.70;;;;;;;20.86;42.21;96971.28;5097010;27;20079;-56
2022/09/21 17:17:17;;;;;;;3.58;2.03;;;;;;;20.75;42.76;96971.00;5097268;27;20125;-55
2022/09/21 17:19:48;;;;;;;2.83;1.85;;;;;;;20.47;43.58;96966.44;5103474;27;20087;-54
2022/09/21 17:22:18;;;;;;;1.88;1.63;;;;;;;20.33;43.85;96970.03;5098193;28;20614;-56
2022/09/21 17:24:50;;;;;;;2.33;1.67;;;;;;;19.77;44.67;96994.03;5102747;27;20450;-53
2022/09/21 17:27:21;;;;;;;3.38;1.90;;;;;;;20.12;45.07;96979.75;5094394;27;20072;-55
2022/09/21 17:29:50;;;;;;;6.13;2.47;;;;;;;20.13;44.72;96976.06;5096065;27;20078;-50
2022/09/21 17:32:19;;;;;;;3.70;2.20;;;;;;;19.83;45.05;96979.88;5098888;27;20083;-52
2022/09/21 17:34:55;;;;;;;4.05;2.20;;;;;;;19.33;46.66;96978.88;5094461;27;20482;-54
2022/09/21 17:37:25;;;;;;;4.05;2.25;;;;;;;19.88;45.85;96975.59;5096470;27;20429;-52
2022/09/21 17:39:53;;;;;;;2.85;2.00;;;;;;;19.89;45.32;96987.16;5097038;27;20612;-55
2022/09/21 17:42:23;;;;;;;3.90;1.75;;;;;;;19.41;47.33;96992.16;5103785;27;20082;-51
2022/09/21 17:45:03;;;;;;;4.95;1.80;;;;;;;19.24;47.64;96988.03;5106997;27;20079;-53
2022/09/21 17:47:32;;;;;;;3.33;2.37;;;;;;;19.56;46.59;96986.75;5104855;27;20446;-57
2022/09/21 17:50:15;;;;;;;3.05;2.38;;;;;;;19.57;46.92;96983.06;5105940;27;20075;-52
2022/09/21 17:55:32;;;;;;;3.45;2.20;;;;;;;19.35;47.48;96995.56;5105908;27;20591;-55
2022/09/21 17:58:13;;;;;;;7.28;3.10;;;;;;;19.71;46.77;96994.78;5104229;27;20079;-54
2022/09/21 18:00:49;;;;;;;7.65;3.03;;;;;;;19.61;47.02;96997.72;5103847;27;20071;-56
2022/09/21 18:03:21;;;;;;;4.25;2.78;;;;;;;19.19;48.08;97005.44;5105122;28;20397;-55
2022/09/21 18:05:53;;;;;;;3.25;2.40;;;;;;;19.01;49.56;96999.63;5102142;27;20082;-57
2022/09/21 18:08:25;;;;;;;5.80;2.65;;;;;;;18.93;50.89;96997.88;5100638;28;20067;-57
2022/09/21 18:11:03;;;;;;;4.10;2.90;;;;;;;18.85;50.76;97002.47;5101722;27;20087;-56
2022/09/21 18:13:38;;;;;;;3.40;2.85;;;;;;;19.28;50.50;97005.34;5105174;27;20079;-57
2022/09/21 18:16:25;;;;;;;4.88;2.90;;;;;;;18.86;52.58;97009.50;5106112;28;20453;-55
2022/09/21 18:19:06;;;;;;;8.10;2.92;;;;;;;18.33;54.28;97005.94;5106063;27;20079;-52
2022/09/21 18:21:38;;;;;;;5.05;2.88;;;;;;;18.69;53.58;97008.81;5102911;27;20083;-55
2022/09/21 18:24:22;;;;;;;5.25;3.10;;;;;;;18.31;54.55;97013.31;5105646;28;20087;-56
2022/09/21 18:26:57;;;;;;;4.63;3.25;;;;;;;18.39;55.85;97003.38;5099780;27;20083;-56
2022/09/21 18:29:29;;;;;;;5.13;3.30;;;;;;;18.47;55.47;97002.47;5086115;28;20065;-57
2022/09/21 18:32:27;;;;;;;4.55;3.20;;;;;;;18.46;55.45;97007.00;5100935;28;20075;-59
2022/09/21 18:35:09;;;;;;;4.50;3.17;;;;;;;19.08;52.75;97010.44;5105870;27;20082;-54
2022/09/21 18:37:43;;;;;;;5.72;4.10;;;;;;;19.09;52.58;97010.22;5098320;28;20140;-55
2022/09/21 18:40:21;;;;;;;4.45;3.15;;;;;;;19.07;52.33;97019.47;5113404;27;20074;-56
2022/09/21 18:42:54;;;;;;;5.38;3.30;;;;;;;19.20;52.43;97019.63;5090286;28;20078;-55
2022/09/21 18:45:25;;;;;;;4.25;2.97;;;;;;;19.10;52.46;97021.78;5104061;27;20070;-57
2022/09/21 18:48:06;;;;;;;4.03;2.85;;;;;;;18.83;53.56;97018.72;5102864;27;20083;-53
2022/09/21 18:50:38;;;;;;;2.58;2.25;;;;;;;18.64;54.25;97016.53;5106532;27;20540;-56
2022/09/21 18:53:14;;;;;;;3.20;2.60;;;;;;;18.15;60.33;97028.44;5101876;27;20528;-55
2022/09/21 18:55:44;;;;;;;4.22;2.55;;;;;;;18.07;65.82;97023.19;5097789;27;20442;-54
2022/09/21 18:58:14;;;;;;;4.60;2.80;;;;;;;18.81;60.33;97022.56;5110835;27;20078;-53
2022/09/21 19:00:43;;;;;;;5.28;3.00;;;;;;;18.67;60.75;97025.00;5105289;27;20070;-52
2022/09/21 19:03:14;;;;;;;6.05;2.90;;;;;;;18.58;64.00;97026.09;5103917;27;20071;-54
2022/09/21 19:05:56;;;;;;;4.50;3.05;;;;;;;18.69;62.67;97028.34;5112320;27;20086;-56
2022/09/21 19:08:30;;;;;;;5.22;3.20;;;;;;;18.58;64.03;97026.09;5104555;27;20086;-52
2022/09/21 19:11:05;;;;;;;5.22;3.75;;;;;;;18.48;64.31;97033.53;5108652;27;20079;-52
2022/09/21 19:13:41;;;;;;;3.90;3.40;;;;;;;17.92;67.25;97033.75;5115043;27;20067;-52
2022/09/21 19:16:17;;;;;;;5.25;2.90;;;;;;;18.09;65.94;97034.50;5092657;28;20114;-53
2022/09/21 19:18:53;;;;;;;4.45;3.15;;;;;;;17.89;68.04;97030.63;5103763;27;20536;-56
2022/09/21 19:21:28;;;;;;;5.95;4.28;;;;;;;18.15;68.91;97025.78;5100545;27;20083;-53
2022/09/21 19:24:06;;;;;;;7.63;4.60;;;;;;;18.03;68.19;97025.38;5106435;27;20098;-56
2022/09/21 19:26:45;;;;;;;7.63;4.75;;;;;;;17.69;69.87;97025.72;5099717;28;20080;-56
2022/09/21 19:29:34;;;;;;;11.65;6.10;;;;;;;17.88;68.37;97027.13;5100986;28;20567;-56
2022/09/21 19:32:02;;;;;;;6.10;3.78;;;;;;;17.67;69.25;97032.22;5103886;27;20075;-56
2022/09/21 19:34:31;;;;;;;5.28;3.85;;;;;;;17.76;68.04;97034.72;5104486;27;20070;-54
2022/09/21 19:36:59;;;;;;;6.47;3.53;;;;;;;17.64;71.31;97025.41;5103665;28;20509;-55
2022/09/21 19:39:35;;;;;;;6.55;4.30;;;;;;;17.72;71.67;97027.19;5104089;28;20083;-55
2022/09/21 19:42:12;;;;;;;5.93;4.13;;;;;;;17.73;71.07;97034.19;5107121;27;20063;-56
2022/09/21 19:45:06;;;;;;;4.78;3.20;;;;;;;17.63;70.39;97033.59;5107093;27;20074;-52
2022/09/21 19:47:38;;;;;;;4.57;3.20;;;;;;;17.60;70.25;97034.75;5109550;27;20063;-55
2022/09/21 19:50:15;;;;;;;5.70;3.72;;;;;;;17.52;70.97;97040.16;5095762;28;20094;-55
2022/09/21 19:52:44;;;;;;;5.72;3.35;;;;;;;17.39;70.34;97034.53;5097121;27;20091;-53
2022/09/21 20:00:52;;;;;;;4.68;3.22;;;;;;;17.13;74.40;97042.78;5100365;27;20083;-57
2022/09/21 20:03:26;;;;;;;3.55;2.92;;;;;;;17.15;74.68;97046.94;5113685;27;20074;-55
2022/09/21 20:06:03;;;;;;;6.05;3.70;;;;;;;16.77;81.16;97033.38;5101828;27;20083;-56
2022/09/21 20:08:35;;;;;;;6.15;3.65;;;;;;;16.60;84.02;97029.88;5098040;27;20067;-57
2022/09/21 20:11:11;;;;;;;5.28;3.45;;;;;;;16.50;83.82;97031.06;5101338;27;20552;-59
2022/09/21 20:14:05;;;;;;;4.15;2.60;;;;;;;16.61;83.01;97030.69;5097687;28;20086;-55
2022/09/21 20:16:39;;;;;;;3.30;3.00;;;;;;;16.85;80.04;97030.69;5101886;27;20656;-57
2022/09/21 20:19:17;;;;;;;6.15;3.20;;;;;;;16.52;85.38;97021.91;5112242;27;20055;-56
2022/09/21 20:21:46;;;;;;;4.72;3.00;;;;;;;16.64;86.79;97022.38;5097894;28;20075;-55
2022/09/21 20:24:20;;;;;;;5.30;3.17;;;;;;;16.60;86.11;97021.06;5105068;27;20066;-58
2022/09/21 20:26:50;;;;;;;4.68;3.10;;;;;;;16.64;85.27;97022.38;5077714;28;20075;-58
2022/09/21 20:29:20;;;;;;;4.53;3.30;;;;;;;16.13;93.12;97035.03;5100654;28;20075;-57
2022/09/21 20:31:51;;;;;;;3.33;3.00;;;;;;;16.29;90.78;97019.09;5103774;27;20074;-58
2022/09/21 20:34:20;;;;;;;5.35;3.05;;;;;;;16.38;87.30;97020.75;5104726;27;20370;-58
2022/09/21 20:36:48;;;;;;;3.60;2.85;;;;;;;16.41;85.59;97034.72;5116838;27;20078;-56
2022/09/21 20:39:16;;;;;;;4.38;3.30;;;;;;;16.50;83.40;97031.06;5110952;27;20086;-52
2022/09/21 20:41:45;;;;;;;3.55;2.90;;;;;;;16.50;81.53;97034.53;5108123;27;20067;-56
2022/09/21 20:44:14;;;;;;;4.38;3.03;;;;;;;16.31;85.09;97032.22;5105921;27;20468;-54
2022/09/21 20:46:43;;;;;;;3.70;2.78;;;;;;;15.96;93.10;97038.69;5127007;27;20086;-55
2022/09/21 20:49:14;;;;;;;4.20;3.30;;;;;;;16.09;91.46;97037.19;5104026;27;20074;-55
2022/09/21 20:51:42;;;;;;;4.28;3.00;;;;;;;16.01;92.42;97033.72;5105641;27;20071;-54
2022/09/21 20:54:11;;;;;;;3.47;2.90;;;;;;;15.98;91.17;97037.53;5102714;27;20110;-55
2022/09/21 20:56:39;;;;;;;3.08;2.60;;;;;;;16.04;89.63;97041.38;5113080;27;20105;-57
2022/09/21 20:59:07;;;;;;;3.97;2.83;;;;;;;15.94;88.52;97038.84;5106682;27;20080;-54
2022/09/21 21:01:36;;;;;;;5.63;3.28;;;;;;;15.97;89.48;97043.84;5093104;28;20063;-52
2022/09/21 21:04:06;;;;;;;3.72;3.20;;;;;;;15.98;94.07;97045.50;5105836;27;20525;-53
2022/09/21 21:06:36;;;;;;;3.15;2.70;;;;;;;15.86;92.61;97045.00;5112260;27;20078;-58
2022/09/21 21:09:04;;;;;;;3.80;2.75;;;;;;;15.57;97.26;97048.03;5103112;27;20079;-50
2022/09/21 21:11:33;;;;;;;3.38;2.70;;;;;;;15.58;100.00;97041.72;5116417;27;20480;-54
2022/09/21 21:14:01;;;;;;;3.95;2.80;;;;;;;15.64;100.00;97040.25;5109999;27;20079;-56
2022/09/21 21:16:30;;;;;;;4.28;2.90;;;;;;;15.29;100.00;97036.81;5106969;27;20090;-57
2022/09/21 21:18:58;;;;;;;3.72;2.97;;;;;;;15.44;100.00;97042.34;5102940;27;20114;-54
2022/09/21 21:21:29;;;;;;;3.72;3.00;;;;;;;15.42;100.00;97039.84;5113573;27;20163;-53
2022/09/21 21:26:44;;;;;;;4.32;3.20;;;;;;;15.65;100.00;97037.41;5108495;27;20098;-54
2022/09/21 21:29:29;;;;;;;5.55;3.28;;;;;;;15.64;100.00;97034.94;5111882;27;20517;-56
2022/09/21 21:31:58;;;;;;;6.30;3.15;;;;;;;15.61;100.00;97040.56;5101005;27;20086;-52
2022/09/21 21:34:26;;;;;;;3.97;3.40;;;;;;;15.32;100.00;97039.16;5110655;27;20739;-57
2022/09/21 21:36:56;;;;;;;7.40;3.08;;;;;;;15.31;100.00;97034.84;5107628;27;20133;-56
2022/09/21 21:39:25;;;;;;;4.27;3.17;;;;;;;14.92;100.00;97034.47;5118929;27;20076;-56
2022/09/21 21:41:53;;;;;;;4.18;3.30;;;;;;;15.09;100.00;97030.91;5105209;27;20078;-52
2022/09/21 21:44:22;;;;;;;5.13;3.33;;;;;;;15.15;100.00;97030.28;5109163;27;20055;-56
2022/09/21 21:46:52;;;;;;;4.10;3.20;;;;;;;14.90;100.00;97033.78;5106212;27;20070;-57
2022/09/21 21:49:20;;;;;;;3.85;3.47;;;;;;;14.76;100.00;97027.22;5105419;27;20557;-57
2022/09/21 21:51:49;;;;;;;5.05;3.00;;;;;;;14.65;100.00;97022.19;5102764;27;20466;-56
2022/09/21 21:54:21;;;;;;;3.38;2.83;;;;;;;14.72;100.00;97028.53;5100411;28;20082;-54
2022/09/21 21:56:50;;;;;;;4.80;3.33;;;;;;;14.89;100.00;97024.97;5094920;27;20080;-58
2022/09/21 21:59:18;;;;;;;4.57;3.25;;;;;;;14.99;100.00;97021.38;5102070;27;20502;-57
2022/09/21 22:01:47;;;;;;;4.75;3.42;;;;;;;15.16;100.00;97031.91;5104848;27;20169;-54
2022/09/21 22:04:16;;;;;;;6.03;3.20;;;;;;;15.09;100.00;97030.91;5103429;28;20078;-53
2022/09/21 22:06:44;;;;;;;3.70;3.22;;;;;;;15.13;100.00;97026.09;5106064;27;20078;-55
2022/09/21 22:09:13;;;;;;;6.93;3.67;;;;;;;15.13;98.37;97034.88;5099394;27;20059;-56
2022/09/21 22:11:43;;;;;;;7.47;3.53;;;;;;;15.06;100.00;97027.72;5105363;27;20072;-57
2022/09/21 22:14:11;;;;;;;4.80;3.53;;;;;;;14.97;100.00;97032.19;5104831;27;20071;-55
2022/09/21 22:16:40;;;;;;;3.40;3.10;;;;;;;14.29;100.00;97032.84;5100133;27;20505;-52
2022/09/21 22:19:08;;;;;;;4.63;3.17;;;;;;;13.96;100.00;97026.41;5088433;28;20068;-54
2022/09/21 22:21:39;;;;;;;3.78;3.15;;;;;;;14.12;100.00;97023.91;5103177;27;20070;-51
2022/09/21 22:24:09;;;;;;;3.70;3.30;;;;;;;14.41;100.00;97020.97;5104813;27;20407;-55
2022/09/21 22:26:40;;;;;;;6.18;3.55;;;;;;;14.61;100.00;97029.63;5100601;27;20115;-56
2022/09/21 22:29:12;;;;;;;3.55;3.10;;;;;;;14.15;100.00;97030.75;5101449;28;20491;-58
2022/09/21 22:31:42;;;;;;;3.80;3.40;;;;;;;13.76;100.00;97023.06;5104511;27;20063;-55
2022/09/21 22:34:11;;;;;;;4.75;3.22;;;;;;;14.10;100.00;97028.53;5101024;27;20071;-56
2022/09/21 22:36:40;;;;;;;4.43;3.60;;;;;;;13.74;100.00;97025.88;5105651;27;20525;-56
2022/09/21 22:39:08;;;;;;;3.38;3.00;;;;;;;14.19;100.00;97026.78;5102146;27;20071;-54
2022/09/21 22:41:38;;;;;;;3.78;3.38;;;;;;;13.69;100.00;97022.00;5098608;28;20079;-54
2022/09/21 22:44:07;;;;;;;5.60;4.15;;;;;;;13.59;100.00;97021.25;5102810;28;20086;-57
2022/09/21 22:46:37;;;;;;;3.75;3.38;;;;;;;13.38;100.00;97021.50;5103620;27;20083;-55
2022/09/21 22:49:06;;;;;;;5.03;3.40;;;;;;;13.39;100.00;97017.91;5109684;27;20795;-57
2022/09/21 22:51:36;;;;;;;5.97;3.65;;;;;;;13.93;100.00;97019.59;5099445;28;20087;-54
2022/09/21 22:54:05;;;;;;;7.22;3.67;;;;;;;13.97;100.00;97013.03;5099587;28;20083;-56
2022/09/21 22:56:33;;;;;;;5.05;3.40;;;;;;;13.75;100.00;97016.94;5102691;28;20087;-52
2022/09/21 22:59:04;;;;;;;4.03;3.45;;;;;;;13.88;100.00;97013.94;5104422;27;20106;-56
2022/09/21 23:01:33;;;;;;;4.25;3.80;;;;;;;14.11;100.00;97009.00;5103978;27;20454;-55
2022/09/21 23:04:05;;;;;;;5.43;3.40;;;;;;;14.13;100.00;97003.53;5103120;28;20075;-55
2022/09/21 23:06:36;;;;;;;7.13;3.50;;;;;;;14.05;100.00;97006.13;5098686;27;20540;-56
2022/09/21 23:09:07;;;;;;;5.13;3.40;;;;;;;13.86;100.00;97010.59;5103545;27;20076;-53
2022/09/21 23:11:36;;;;;;;4.03;3.35;;;;;;;13.70;100.00;97007.78;5106062;27;20083;-55
2022/09/21 23:14:05;;;;;;;6.17;3.60;;;;;;;13.72;100.00;97003.16;5095257;27;20141;-54
2022/09/21 23:16:34;;;;;;;4.95;3.83;;;;;;;13.32;100.00;97007.06;5102795;27;20094;-54
2022/09/21 23:19:04;;;;;;;6.38;4.47;;;;;;;12.78;100.00;97006.03;5101223;28;20469;-55
2022/09/21 23:21:32;;;;;;;6.80;4.30;;;;;;;12.79;100.00;97005.84;5105507;27;20052;-56
2022/09/21 23:24:02;;;;;;;4.32;3.60;;;;;;;13.35;100.00;97006.78;5100535;27;20080;-53
2022/09/21 23:26:32;;;;;;;4.20;3.80;;;;;;;13.53;100.00;97002.31;5107793;27;20087;-56
2022/09/21 23:29:02;;;;;;;4.20;3.80;;;;;;;13.22;100.00;97001.78;5097728;27;20904;-55
2022/09/21 23:31:32;;;;;;;4.80;3.80;;;;;;;13.24;100.00;96999.00;5097918;27;20070;-54
2022/09/21 23:34:08;;;;;;;6.93;3.80;;;;;;;12.91;100.00;96997.75;5100624;27;20522;-56
2022/09/21 23:36:36;;;;;;;3.88;3.45;;;;;;;13.07;100.00;97005.88;5097309;27;20089;-56
2022/09/21 23:39:06;;;;;;;8.35;3.70;;;;;;;13.19;100.00;97001.25;5104899;27;20098;-55
2022/09/21 23:41:35;;;;;;;4.22;3.83;;;;;;;13.07;100.00;96992.63;5099216;27;20079;-55
2022/09/21 23:44:04;;;;;;;4.75;3.90;;;;;;;13.12;100.00;96990.41;5102716;27;20564;-55
2022/09/21 23:46:34;;;;;;;4.32;3.60;;;;;;;12.54;100.00;96998.56;5101632;28;20694;-53
2022/09/21 23:49:03;;;;;;;5.13;3.90;;;;;;;12.37;100.00;96996.66;5089138;27;20072;-52
2022/09/21 23:51:33;;;;;;;12.68;3.92;;;;;;;13.14;100.00;96993.72;5093947;28;20076;-51
2022/09/21 23:54:02;;;;;;;6.03;3.97;;;;;;;12.33;100.00;96993.47;5106725;27;20083;-57
2022/09/21 23:56:30;;;;;;;6.80;4.07;;;;;;;11.75;100.00;97002.25;5104194;28;20085;-55
2022/09/21 23:58:59;;;;;;;5.47;4.30;;;;;;;11.80;100.00;97000.03;5104437;28;20087;-58
